Time;durP1;ratioP1;P1;durP2;ratioP2;P2;SDS_P1;SDS_P2;PMS_P1;PMS_P2;Temp;Humidity;BMP_temperature;BMP_pressure;BME280_temperature;BME280_humidity;BME280_pressure;Samples;Min_cycle;Max_cycle;Signal;HPM_P1;HPM_P2
2022/12/11 00:01:08;;;;;;;24.55;12.45;;;1.60;99.90;;;;;;5061485;28;20495;-59
2022/12/11 00:03:36;;;;;;;27.60;14.30;;;1.60;99.90;;;;;;5056798;28;20045;-58
2022/12/11 00:06:09;;;;;;;25.40;12.30;;;1.60;99.90;;;;;;5061134;28;20503;-59
2022/12/11 00:08:38;;;;;;;24.65;12.57;;;1.50;99.90;;;;;;5066460;28;20037;-59
2022/12/11 00:11:12;;;;;;;28.45;13.40;;;1.60;99.90;;;;;;5069243;28;20033;-59
2022/12/11 00:13:40;;;;;;;24.88;12.48;;;1.50;99.90;;;;;;5068418;28;20047;-60
2022/12/11 00:16:11;;;;;;;25.90;13.25;;;1.50;99.90;;;;;;5064215;28;20120;-59
2022/12/11 00:18:38;;;;;;;28.02;14.27;;;1.50;99.90;;;;;;5063713;28;20049;-60
2022/12/11 00:21:10;;;;;;;27.55;13.32;;;1.50;99.90;;;;;;5069984;28;20040;-60
2022/12/11 00:23:39;;;;;;;31.58;15.43;;;1.50;99.90;;;;;;5062289;28;20048;-60
2022/12/11 00:26:09;;;;;;;25.75;13.90;;;1.40;99.90;;;;;;5066343;28;20488;-59
2022/12/11 00:28:37;;;;;;;26.63;13.40;;;1.40;99.90;;;;;;5065084;28;20049;-60
2022/12/11 00:31:06;;;;;;;27.23;12.85;;;1.50;99.90;;;;;;5061821;28;20048;-60
2022/12/11 00:33:34;;;;;;;27.30;14.02;;;1.40;99.90;;;;;;5068609;28;20055;-59
2022/12/11 00:36:02;;;;;;;28.02;13.38;;;1.40;99.90;;;;;;5059323;28;20056;-59
2022/12/11 00:38:30;;;;;;;22.60;13.55;;;1.40;99.90;;;;;;5049376;28;20049;-59
2022/12/11 00:41:01;;;;;;;27.88;13.27;;;1.40;99.90;;;;;;5049119;28;20076;-60
2022/12/11 00:43:29;;;;;;;28.48;13.68;;;1.40;99.90;;;;;;5061528;28;20056;-59
2022/12/11 00:45:57;;;;;;;25.80;13.15;;;1.30;99.90;;;;;;5067038;28;20060;-60
2022/12/11 00:48:24;;;;;;;23.63;12.05;;;1.30;99.90;;;;;;5057940;28;20044;-58
2022/12/11 00:50:58;;;;;;;24.83;13.98;;;1.30;99.90;;;;;;5069120;28;20455;-60
2022/12/11 00:53:26;;;;;;;27.25;13.25;;;1.30;99.90;;;;;;5062381;28;20400;-62
2022/12/11 00:55:54;;;;;;;30.52;16.23;;;1.30;99.90;;;;;;5063695;28;20056;-60
2022/12/11 00:58:22;;;;;;;32.42;15.77;;;1.30;99.90;;;;;;5057040;28;20057;-59
2022/12/11 01:00:52;;;;;;;31.88;16.52;;;1.30;99.90;;;;;;5049478;28;20045;-59
2022/12/11 01:03:20;;;;;;;36.28;17.48;;;1.30;99.90;;;;;;5046332;28;20404;-59
2022/12/11 01:05:54;;;;;;;35.47;15.13;;;1.30;99.90;;;;;;5055751;28;20029;-59
2022/12/11 01:08:22;;;;;;;32.40;15.48;;;1.30;99.90;;;;;;5066687;28;20041;-60
2022/12/11 01:10:49;;;;;;;33.88;14.40;;;1.30;99.90;;;;;;5065317;28;20045;-61
2022/12/11 01:13:17;;;;;;;28.17;15.30;;;1.30;99.90;;;;;;5049423;28;20049;-59
2022/12/11 01:15:45;;;;;;;37.20;17.55;;;1.30;99.90;;;;;;5059573;28;20060;-59
2022/12/11 01:18:14;;;;;;;33.97;17.23;;;1.30;99.90;;;;;;5057125;28;20506;-61
2022/12/11 01:20:42;;;;;;;37.85;16.75;;;1.30;99.90;;;;;;5048532;28;20363;-60
2022/12/11 01:23:13;;;;;;;32.28;14.68;;;1.30;99.90;;;;;;5052413;28;20045;-61
2022/12/11 01:25:41;;;;;;;30.92;16.15;;;1.30;99.90;;;;;;5066250;28;20048;-60
2022/12/11 01:28:12;;;;;;;30.38;15.10;;;1.30;99.90;;;;;;5057169;28;20524;-60
2022/12/11 01:30:42;;;;;;;30.55;16.15;;;1.30;99.90;;;;;;5069818;28;20048;-60
2022/12/11 01:33:10;;;;;;;36.42;17.30;;;1.30;99.90;;;;;;5049044;28;20055;-60
2022/12/11 01:35:39;;;;;;;33.97;16.85;;;1.30;99.90;;;;;;5062424;28;20419;-59
2022/12/11 01:38:06;;;;;;;30.73;15.25;;;1.30;99.90;;;;;;5062207;28;20495;-60
2022/12/11 01:40:34;;;;;;;28.98;14.43;;;1.30;99.90;;;;;;5057447;28;20053;-59
2022/12/11 01:43:02;;;;;;;30.67;15.80;;;1.20;99.90;;;;;;5062970;28;20045;-59
2022/12/11 01:45:31;;;;;;;30.33;14.73;;;1.20;99.90;;;;;;5060993;28;20044;-59
2022/12/11 01:48:04;;;;;;;32.42;15.27;;;1.20;99.90;;;;;;5047955;28;20045;-60
2022/12/11 01:50:37;;;;;;;29.33;16.05;;;1.10;99.90;;;;;;5060764;28;20044;-59
2022/12/11 01:53:07;;;;;;;31.98;15.13;;;1.10;99.90;;;;;;5066448;28;20049;-59
2022/12/11 01:55:37;;;;;;;35.38;15.23;;;1.10;99.90;;;;;;5062213;28;20048;-59
2022/12/11 01:58:07;;;;;;;27.73;13.48;;;1.10;99.90;;;;;;5055743;28;20036;-59
2022/12/11 02:00:34;;;;;;;30.98;14.52;;;1.10;99.90;;;;;;5062934;28;20063;-59
2022/12/11 02:03:02;;;;;;;32.28;15.57;;;1.10;99.90;;;;;;5065630;28;20048;-59
2022/12/11 02:05:30;;;;;;;29.00;15.23;;;1.10;99.90;;;;;;5059983;28;20048;-59
2022/12/11 02:08:00;;;;;;;31.45;15.40;;;1.00;99.90;;;;;;5066705;28;20040;-60
2022/12/11 02:10:43;;;;;;;31.25;14.95;;;1.00;99.90;;;;;;5066770;28;20036;-59
2022/12/11 02:13:25;;;;;;;31.95;15.07;;;1.00;99.90;;;;;;5048024;28;21012;-59
2022/12/11 02:16:09;;;;;;;34.40;17.88;;;1.00;99.90;;;;;;5063184;28;20067;-60
2022/12/11 02:18:51;;;;;;;33.72;14.95;;;1.00;99.90;;;;;;5063664;28;20053;-59
2022/12/11 02:21:24;;;;;;;31.15;15.10;;;1.10;99.90;;;;;;5060328;28;20049;-60
2022/12/11 02:24:19;;;;;;;31.88;15.93;;;1.00;99.90;;;;;;5049893;28;20040;-59
2022/12/11 02:27:14;;;;;;;32.42;15.45;;;1.10;99.90;;;;;;5051112;28;20045;-59
2022/12/11 02:29:52;;;;;;;32.83;15.63;;;1.10;99.90;;;;;;5055430;28;20048;-58
2022/12/11 02:32:25;;;;;;;31.90;16.92;;;1.10;99.90;;;;;;5048628;28;20049;-60
2022/12/11 02:35:08;;;;;;;34.47;17.20;;;1.10;99.90;;;;;;5065560;28;20041;-60
2022/12/11 02:37:40;;;;;;;30.27;16.80;;;1.10;99.90;;;;;;5060200;28;20044;-59
2022/12/11 02:40:11;;;;;;;35.75;16.45;;;1.20;99.90;;;;;;5069017;28;20071;-59
2022/12/11 02:42:42;;;;;;;30.70;16.15;;;1.10;99.90;;;;;;5065026;28;20384;-59
2022/12/11 02:45:12;;;;;;;34.58;18.23;;;1.10;99.90;;;;;;5058886;28;20045;-59
2022/12/11 02:47:42;;;;;;;37.50;18.45;;;1.10;99.90;;;;;;5059544;28;20055;-60
2022/12/11 02:50:14;;;;;;;33.60;17.23;;;1.10;99.90;;;;;;5062951;28;20037;-59
2022/12/11 02:52:43;;;;;;;30.05;14.82;;;1.10;99.90;;;;;;5069925;28;20040;-60
2022/12/11 02:55:13;;;;;;;32.70;16.30;;;1.00;99.90;;;;;;5067401;28;20057;-60
2022/12/11 02:57:49;;;;;;;35.05;16.85;;;1.00;99.90;;;;;;5058280;28;20064;-59
2022/12/11 03:00:17;;;;;;;35.22;17.35;;;0.90;99.90;;;;;;5050074;28;20048;-59
2022/12/11 03:02:45;;;;;;;33.85;16.63;;;0.90;99.90;;;;;;5056828;28;20048;-62
2022/12/11 03:05:13;;;;;;;43.83;17.65;;;0.90;99.90;;;;;;5069220;28;20502;-60
2022/12/11 03:07:42;;;;;;;36.42;17.60;;;0.90;99.90;;;;;;5058036;28;20049;-60
2022/12/11 03:10:13;;;;;;;;;;;1.00;99.90;;;;;;5063400;28;20044;-59
2022/12/11 03:12:44;;;;;;;31.45;15.07;;;0.90;99.90;;;;;;5069884;28;19927;-61
2022/12/11 03:15:21;;;;;;;34.80;17.42;;;1.00;99.90;;;;;;5067361;28;20037;-60
2022/12/11 03:18:26;;;;;;;33.80;17.27;;;0.90;99.90;;;;;;5060724;28;20075;-61
2022/12/11 03:21:08;;;;;;;32.30;15.93;;;0.90;99.90;;;;;;5056725;28;20037;-60
2022/12/11 03:23:42;;;;;;;31.08;15.98;;;0.90;99.90;;;;;;5051951;28;20060;-59
2022/12/11 03:26:15;;;;;;;31.75;15.80;;;0.90;99.90;;;;;;5056242;28;20419;-61
2022/12/11 03:28:59;;;;;;;34.75;17.58;;;0.90;99.90;;;;;;5060416;28;20056;-60
2022/12/11 03:31:44;;;;;;;33.00;15.85;;;0.90;99.90;;;;;;5056846;28;20052;-60
2022/12/11 03:34:23;;;;;;;34.38;17.35;;;0.80;99.90;;;;;;5057793;28;20045;-60
2022/12/11 03:36:52;;;;;;;;;;;0.90;99.90;;;;;;5067260;28;20037;-60
2022/12/11 03:39:31;;;;;;;35.03;16.88;;;0.90;99.90;;;;;;5058097;28;20407;-61
2022/12/11 03:42:04;;;;;;;31.73;16.23;;;0.90;99.90;;;;;;5050943;28;20048;-60
2022/12/11 03:44:34;;;;;;;33.22;17.40;;;0.90;99.90;;;;;;5054306;28;20052;-60
2022/12/11 03:47:05;;;;;;;35.13;16.88;;;0.90;99.90;;;;;;5069776;28;20375;-59
2022/12/11 03:49:39;;;;;;;34.83;17.10;;;1.00;99.90;;;;;;5065526;28;20423;-61
2022/12/11 03:52:09;;;;;;;35.58;17.75;;;1.10;99.90;;;;;;5060258;28;20518;-60
2022/12/11 03:54:39;;;;;;;33.90;16.23;;;1.00;99.90;;;;;;5058826;28;20045;-61
2022/12/11 03:57:09;;;;;;;37.53;17.58;;;1.10;99.90;;;;;;5056362;28;20045;-60
2022/12/11 03:59:36;;;;;;;;;;;1.10;99.90;;;;;;5054098;28;20520;-59
2022/12/11 04:02:09;;;;;;;34.83;17.85;;;1.20;99.90;;;;;;5063422;28;20533;-60
2022/12/11 04:04:40;;;;;;;35.90;17.88;;;1.10;99.90;;;;;;5068587;28;20048;-60
2022/12/11 04:07:09;;;;;;;32.38;17.50;;;1.20;99.90;;;;;;5055953;28;20400;-60
2022/12/11 04:09:39;;;;;;;38.35;19.00;;;1.20;99.90;;;;;;5065059;28;20404;-61
2022/12/11 04:12:07;;;;;;;37.03;17.50;;;1.20;99.90;;;;;;5069070;28;20052;-59
2022/12/11 04:25:41;;;;;;;34.20;16.38;;;1.60;99.90;;;;;;5069425;28;20515;-59
2022/12/11 04:28:09;;;;;;;32.47;17.15;;;1.30;99.90;;;;;;5057260;28;20044;-60
2022/12/11 04:30:36;;;;;;;35.13;18.38;;;1.30;99.90;;;;;;5067666;28;20056;-59
2022/12/11 04:33:04;;;;;;;38.20;17.95;;;1.30;99.90;;;;;;5053879;28;20049;-60
2022/12/11 04:35:31;;;;;;;34.28;18.35;;;1.30;99.90;;;;;;5063296;28;20048;-60
2022/12/11 04:38:00;;;;;;;37.80;18.55;;;1.30;99.90;;;;;;5070891;28;20053;-60
2022/12/11 04:40:28;;;;;;;43.53;18.25;;;1.30;99.90;;;;;;5060982;28;20048;-59
2022/12/11 04:42:55;;;;;;;40.05;17.13;;;1.40;99.90;;;;;;5053700;28;20049;-59
2022/12/11 04:45:23;;;;;;;35.58;16.77;;;1.40;99.90;;;;;;5069988;28;20045;-59
2022/12/11 04:47:51;;;;;;;38.00;18.13;;;1.40;99.90;;;;;;5064577;28;20056;-59
2022/12/11 04:50:18;;;;;;;39.47;18.85;;;1.40;99.90;;;;;;5069793;28;20052;-60
2022/12/11 04:52:46;;;;;;;43.55;19.23;;;1.40;99.90;;;;;;5061415;28;20060;-59
2022/12/11 04:55:14;;;;;;;33.72;17.98;;;1.40;99.90;;;;;;5053946;28;20033;-61
2022/12/11 04:57:41;;;;;;;41.38;17.75;;;1.40;99.90;;;;;;5057813;28;20052;-60
2022/12/11 05:00:10;;;;;;;33.58;17.52;;;1.40;99.90;;;;;;5068145;28;20485;-60
2022/12/11 05:02:40;;;;;;;36.95;17.38;;;1.50;99.90;;;;;;5060850;28;20044;-61
2022/12/11 05:05:09;;;;;;;34.63;16.83;;;1.50;99.90;;;;;;5062620;28;20052;-60
2022/12/11 05:07:37;;;;;;;39.22;18.00;;;1.50;99.90;;;;;;5057046;28;20057;-59
2022/12/11 05:10:06;;;;;;;35.55;18.15;;;1.50;99.90;;;;;;5066055;28;20052;-60
2022/12/11 05:12:34;;;;;;;37.90;18.48;;;1.50;99.90;;;;;;5053528;28;20045;-59
2022/12/11 05:15:02;;;;;;;39.17;17.88;;;1.50;99.90;;;;;;5069258;28;20061;-59
2022/12/11 05:17:30;;;;;;;40.75;18.85;;;1.50;99.90;;;;;;5072315;28;20040;-60
2022/12/11 05:19:57;;;;;;;35.33;17.77;;;1.50;99.90;;;;;;5056268;28;20637;-60
2022/12/11 05:22:25;;;;;;;42.65;19.58;;;1.60;99.90;;;;;;5052333;28;20068;-60
2022/12/11 05:24:53;;;;;;;43.83;18.20;;;1.60;99.90;;;;;;5065250;28;20040;-59
2022/12/11 05:27:21;;;;;;;36.97;18.00;;;1.60;99.90;;;;;;5063856;28;20048;-59
2022/12/11 05:29:48;;;;;;;35.83;18.67;;;1.60;99.90;;;;;;5070739;28;20052;-60
2022/12/11 05:32:20;;;;;;;36.15;17.15;;;1.60;99.90;;;;;;5073364;28;20044;-60
2022/12/11 05:34:50;;;;;;;39.25;16.98;;;1.60;99.90;;;;;;5062162;28;20052;-60
2022/12/11 05:37:17;;;;;;;;;;;1.60;99.90;;;;;;5071004;28;20045;-60
2022/12/11 05:39:44;;;;;;;43.58;18.27;;;1.60;99.90;;;;;;5065642;28;19920;-60
2022/12/11 05:42:12;;;;;;;44.67;19.50;;;1.60;99.90;;;;;;5061272;28;20049;-58
2022/12/11 05:44:40;;;;;;;42.85;18.88;;;1.60;99.90;;;;;;5054346;28;20053;-58
2022/12/11 05:47:08;;;;;;;38.67;18.00;;;1.60;99.90;;;;;;5065219;28;20055;-59
2022/12/11 05:49:38;;;;;;;40.40;18.05;;;1.60;99.90;;;;;;5051563;28;20053;-58
2022/12/11 05:52:06;;;;;;;43.15;18.98;;;1.60;99.90;;;;;;5067281;28;20049;-59
2022/12/11 05:54:36;;;;;;;39.05;18.38;;;1.60;99.90;;;;;;5048994;28;20515;-60
2022/12/11 05:57:04;;;;;;;43.78;19.15;;;1.60;99.90;;;;;;5058820;28;20041;-59
2022/12/11 05:59:31;;;;;;;43.08;19.70;;;1.60;99.90;;;;;;5057538;28;20041;-59
2022/12/11 06:01:59;;;;;;;37.58;18.63;;;1.60;99.90;;;;;;5053972;28;20049;-60
2022/12/11 06:04:27;;;;;;;42.45;20.60;;;1.60;99.90;;;;;;5050017;28;20053;-61
2022/12/11 06:06:55;;;;;;;40.20;18.98;;;1.60;99.90;;;;;;5052105;28;20044;-61
2022/12/11 06:09:25;;;;;;;41.50;19.85;;;5.00;99.90;;;;;;5052081;28;20412;-61
2022/12/11 06:11:53;;;;;;;46.55;19.55;;;1.70;99.90;;;;;;5060924;28;20044;-61
2022/12/11 06:14:23;;;;;;;43.28;20.67;;;1.60;99.90;;;;;;5055192;28;20061;-59
2022/12/11 06:16:51;;;;;;;49.70;20.38;;;1.70;99.90;;;;;;5060199;28;20044;-61
2022/12/11 06:19:19;;;;;;;51.05;22.63;;;1.70;99.90;;;;;;5054569;28;20049;-60
2022/12/11 06:21:50;;;;;;;52.33;22.02;;;1.70;99.90;;;;;;5048969;28;20041;-60
2022/12/11 06:24:18;;;;;;;52.08;22.23;;;1.70;99.90;;;;;;5048726;28;20511;-60
2022/12/11 06:26:45;;;;;;;39.75;19.42;;;1.70;99.90;;;;;;5062427;28;20037;-61
2022/12/11 06:29:13;;;;;;;47.05;20.20;;;1.70;99.90;;;;;;5060774;28;20060;-61
2022/12/11 06:31:41;;;;;;;47.47;21.80;;;1.70;99.90;;;;;;5057827;28;20068;-60
2022/12/11 06:34:11;;;;;;;43.47;21.50;;;1.70;99.90;;;;;;5061053;28;20053;-58
2022/12/11 06:36:39;;;;;;;47.20;20.95;;;1.70;99.90;;;;;;5064295;28;20052;-59
2022/12/11 06:39:07;;;;;;;52.63;22.45;;;1.70;99.90;;;;;;5062568;28;20400;-59
2022/12/11 06:41:35;;;;;;;53.92;23.08;;;1.70;99.90;;;;;;5065489;28;20041;-60
2022/12/11 06:44:03;;;;;;;55.20;23.65;;;1.70;99.90;;;;;;5060675;28;20401;-59
2022/12/11 06:46:31;;;;;;;53.53;21.98;;;1.80;99.90;;;;;;5063907;28;20041;-60
2022/12/11 06:48:59;;;;;;;55.80;22.90;;;1.70;99.90;;;;;;5058883;28;20416;-59
2022/12/11 06:51:27;;;;;;;55.90;23.58;;;1.70;99.90;;;;;;5055574;28;20496;-60
2022/12/11 06:53:59;;;;;;;59.53;23.45;;;1.70;99.90;;;;;;5053826;28;20040;-59
2022/12/11 06:56:26;;;;;;;57.03;24.02;;;1.70;99.90;;;;;;5054122;28;20056;-59
2022/12/11 06:58:55;;;;;;;56.78;22.70;;;1.70;99.90;;;;;;5053886;28;20041;-60
2022/12/11 07:01:26;;;;;;;56.90;23.02;;;1.70;99.90;;;;;;5042440;28;20052;-60
2022/12/11 07:03:55;;;;;;;56.55;22.83;;;1.70;99.90;;;;;;5050612;28;20041;-60
2022/12/11 07:06:24;;;;;;;59.90;24.92;;;1.80;99.90;;;;;;5051393;28;20043;-59
2022/12/11 07:08:52;;;;;;;57.50;22.95;;;1.70;99.90;;;;;;5059858;28;20044;-60
2022/12/11 07:11:21;;;;;;;61.30;23.95;;;1.70;99.90;;;;;;5058471;28;20047;-61
2022/12/11 07:13:49;;;;;;;57.83;23.48;;;1.70;99.90;;;;;;5058130;28;20041;-60
2022/12/11 07:16:17;;;;;;;60.47;24.50;;;1.70;99.90;;;;;;5057152;28;20071;-59
2022/12/11 07:18:48;;;;;;;55.08;23.90;;;1.70;99.90;;;;;;5058143;28;20055;-59
2022/12/11 07:21:17;;;;;;;52.78;23.50;;;1.70;99.90;;;;;;5058273;28;20511;-59
2022/12/11 07:23:45;;;;;;;65.40;24.00;;;1.70;99.90;;;;;;5058673;28;20043;-59
2022/12/11 07:26:16;;;;;;;61.30;23.77;;;1.70;99.90;;;;;;5056518;28;20032;-60
2022/12/11 07:28:44;;;;;;;62.55;23.58;;;1.70;99.90;;;;;;5056876;28;20052;-60
2022/12/11 07:31:18;;;;;;;53.55;23.13;;;1.70;99.90;;;;;;5056082;28;20048;-59
2022/12/11 07:33:46;;;;;;;58.53;23.23;;;1.70;99.90;;;;;;5039284;28;20065;-60
2022/12/11 07:36:15;;;;;;;56.55;22.55;;;1.70;99.90;;;;;;5058400;28;20052;-59
2022/12/11 07:38:42;;;;;;;55.10;24.60;;;1.70;99.90;;;;;;5057718;28;20041;-58
2022/12/11 07:41:13;;;;;;;55.75;24.02;;;1.70;99.90;;;;;;5057057;28;20464;-60
2022/12/11 07:43:41;;;;;;;61.85;25.30;;;1.60;99.90;;;;;;5058694;28;20047;-59
2022/12/11 07:46:15;;;;;;;60.92;22.27;;;1.70;99.90;;;;;;5060291;28;20051;-59
2022/12/11 07:48:44;;;;;;;55.38;23.10;;;1.70;99.90;;;;;;5061330;28;20284;-60
2022/12/11 07:51:19;;;;;;;53.45;23.30;;;1.70;99.90;;;;;;5061551;28;20052;-60
2022/12/11 07:53:48;;;;;;;61.53;23.30;;;1.70;99.90;;;;;;5062046;28;20043;-59
2022/12/11 07:56:17;;;;;;;59.75;24.20;;;1.70;99.90;;;;;;5059301;28;20047;-59
2022/12/11 07:58:45;;;;;;;55.63;22.80;;;1.70;99.90;;;;;;5064460;28;20044;-60
2022/12/11 08:01:16;;;;;;;65.70;24.10;;;1.70;99.90;;;;;;5048847;28;20634;-60
2022/12/11 08:03:44;;;;;;;58.95;22.58;;;1.70;99.90;;;;;;5056629;28;20037;-60
2022/12/11 08:06:13;;;;;;;55.95;22.48;;;1.70;99.90;;;;;;5057911;28;20045;-60
2022/12/11 08:08:40;;;;;;;55.85;25.17;;;1.80;99.90;;;;;;5057998;28;20041;-60
2022/12/11 08:11:12;;;;;;;68.88;24.02;;;1.80;99.90;;;;;;5056052;28;20041;-61
2022/12/11 08:13:41;;;;;;;65.97;26.70;;;1.80;99.90;;;;;;5059921;28;20526;-59
2022/12/11 08:16:12;;;;;;;59.80;24.55;;;1.80;99.90;;;;;;5057587;28;20029;-60
2022/12/11 08:18:42;;;;;;;58.17;22.55;;;1.80;99.90;;;;;;5058568;28;20032;-59
2022/12/11 08:21:30;;;;;;;66.78;25.25;;;1.80;99.90;;;;;;5060972;28;20463;-59
2022/12/11 08:24:00;;;;;;;66.05;23.23;;;1.80;99.90;;;;;;5060246;28;20041;-61
2022/12/11 08:26:32;;;;;;;55.58;22.38;;;1.80;99.90;;;;;;5054369;28;20591;-60
2022/12/11 08:29:01;;;;;;;61.90;23.63;;;1.80;99.90;;;;;;5063455;28;20048;-60
2022/12/11 08:31:30;;;;;;;61.90;23.23;;;1.80;99.90;;;;;;5050135;28;20527;-60
2022/12/11 08:33:57;;;;;;;63.83;23.75;;;1.80;99.90;;;;;;5056292;28;20056;-60
2022/12/11 08:36:28;;;;;;;56.60;20.20;;;1.80;99.90;;;;;;5056569;28;20481;-58
2022/12/11 08:38:59;;;;;;;59.60;23.38;;;1.80;99.90;;;;;;5061119;28;20051;-60
2022/12/11 08:41:29;;;;;;;59.25;23.80;;;1.80;99.90;;;;;;5058460;28;20045;-59
2022/12/11 08:44:00;;;;;;;;;;;1.80;99.90;;;;;;5060796;28;20036;-59
2022/12/11 08:46:30;;;;;;;63.65;23.48;;;1.80;99.90;;;;;;5059133;28;20276;-61
2022/12/11 08:48:58;;;;;;;62.97;23.83;;;1.80;99.90;;;;;;5062142;28;20040;-60
2022/12/11 08:51:31;;;;;;;64.90;24.10;;;1.80;99.90;;;;;;5059564;28;20057;-60
2022/12/11 08:54:02;;;;;;;62.67;23.40;;;1.80;99.90;;;;;;5053283;28;20064;-60
2022/12/11 08:56:30;;;;;;;59.15;21.02;;;1.80;99.90;;;;;;5055728;28;20044;-60
2022/12/11 08:59:01;;;;;;;63.75;23.60;;;1.80;99.90;;;;;;5069395;28;20060;-61
2022/12/11 09:01:29;;;;;;;60.95;22.35;;;1.90;99.90;;;;;;5061083;28;20048;-59
2022/12/11 09:03:57;;;;;;;55.47;22.38;;;1.90;99.90;;;;;;5063127;28;20477;-59
2022/12/11 09:06:28;;;;;;;69.18;23.42;;;1.90;99.90;;;;;;5057757;28;20037;-59
2022/12/11 09:08:59;;;;;;;66.80;22.02;;;1.90;99.90;;;;;;5061613;28;20040;-59
2022/12/11 09:11:29;;;;;;;66.63;21.65;;;1.90;99.90;;;;;;5049128;28;20234;-60
2022/12/11 09:14:01;;;;;;;63.58;22.30;;;2.00;99.90;;;;;;5063971;28;20041;-59
2022/12/11 09:16:39;;;;;;;61.45;22.80;;;2.00;99.90;;;;;;5068406;28;20048;-59
2022/12/11 09:19:12;;;;;;;66.00;20.85;;;2.00;99.90;;;;;;5055360;28;20041;-58
2022/12/11 09:21:43;;;;;;;64.47;21.33;;;2.00;99.90;;;;;;5050311;28;20507;-60
2022/12/11 09:24:12;;;;;;;58.03;21.67;;;2.10;99.90;;;;;;5058304;28;20052;-59
2022/12/11 09:26:42;;;;;;;62.38;21.52;;;2.10;99.90;;;;;;5050502;28;20045;-59
2022/12/11 09:29:10;;;;;;;65.82;22.80;;;2.10;99.90;;;;;;5066546;28;20329;-60
2022/12/11 09:31:39;;;;;;;66.43;22.67;;;2.10;99.90;;;;;;5064774;28;20598;-59
2022/12/11 09:34:11;;;;;;;61.83;20.08;;;2.10;99.90;;;;;;5065226;28;20056;-60
2022/12/11 09:36:43;;;;;;;58.30;20.83;;;2.10;99.90;;;;;;5063745;28;20052;-60
2022/12/11 09:39:20;;;;;;;58.20;21.60;;;2.10;99.90;;;;;;5069523;28;20048;-59
2022/12/11 09:42:14;;;;;;;64.10;22.73;;;2.10;99.90;;;;;;5069439;28;20037;-59
2022/12/11 09:44:50;;;;;;;59.05;22.35;;;2.20;99.90;;;;;;5051119;28;20045;-59
2022/12/11 09:47:38;;;;;;;69.10;22.10;;;2.20;99.90;;;;;;5065156;28;20041;-59
2022/12/11 09:50:16;;;;;;;57.95;20.52;;;2.20;99.90;;;;;;5060535;28;20399;-59
2022/12/11 09:52:58;;;;;;;60.75;20.80;;;2.20;99.90;;;;;;5054356;28;20041;-61
2022/12/11 09:55:34;;;;;;;58.45;21.35;;;2.20;99.90;;;;;;5059864;28;20545;-61
2022/12/11 09:58:14;;;;;;;57.35;20.75;;;2.20;99.90;;;;;;5068934;28;20048;-60
2022/12/11 10:00:54;;;;;;;61.97;22.90;;;2.20;99.90;;;;;;5049369;28;20049;-59
2022/12/11 10:03:56;;;;;;;59.20;21.48;;;2.20;99.90;;;;;;5054540;28;20063;-60
2022/12/11 10:06:30;;;;;;;58.30;20.00;;;2.20;99.90;;;;;;5054108;28;20603;-61
2022/12/11 10:09:35;;;;;;;61.90;22.92;;;2.20;99.90;;;;;;5065614;28;20043;-60
2022/12/11 10:12:27;;;;;;;55.08;18.95;;;2.30;99.90;;;;;;5068676;28;20041;-60
2022/12/11 10:15:36;;;;;;;58.55;21.73;;;2.30;99.90;;;;;;5060446;28;20040;-62
2022/12/11 10:18:10;;;;;;;57.85;22.30;;;2.30;99.90;;;;;;5061534;28;20484;-60
2022/12/11 10:20:39;;;;;;;53.80;20.63;;;2.30;99.90;;;;;;5057597;28;20044;-60
2022/12/11 10:23:12;;;;;;;60.97;22.02;;;2.30;99.90;;;;;;5053853;28;20499;-60
2022/12/11 10:25:46;;;;;;;59.10;22.10;;;2.40;99.90;;;;;;5053432;28;20052;-59
2022/12/11 10:28:17;;;;;;;56.75;21.58;;;2.40;99.90;;;;;;5057491;28;20502;-59
2022/12/11 10:31:12;;;;;;;57.17;21.85;;;2.40;99.90;;;;;;5049064;28;20499;-59
2022/12/11 10:34:25;;;;;;;62.92;22.08;;;2.40;99.90;;;;;;5051756;28;20052;-59
2022/12/11 10:36:53;;;;;;;55.25;22.25;;;2.40;99.90;;;;;;5058049;28;20048;-61
2022/12/11 10:39:27;;;;;;;53.25;20.23;;;2.50;99.90;;;;;;5059377;28;20056;-59
2022/12/11 10:41:56;;;;;;;60.10;22.40;;;2.50;99.90;;;;;;5064178;28;20812;-59
2022/12/11 10:44:26;;;;;;;55.43;22.30;;;2.50;99.90;;;;;;5047753;28;20496;-59
2022/12/11 10:47:11;;;;;;;59.53;22.13;;;2.50;99.90;;;;;;5051592;28;20048;-60
2022/12/11 10:49:50;;;;;;;57.88;21.67;;;2.50;99.90;;;;;;5048736;28;20040;-60
2022/12/11 10:52:22;;;;;;;59.10;21.30;;;2.50;99.90;;;;;;5050007;28;20053;-59
2022/12/11 10:55:02;;;;;;;51.83;20.15;;;2.60;99.90;;;;;;5051600;28;20053;-59
2022/12/11 10:57:35;;;;;;;55.80;21.98;;;2.50;99.90;;;;;;5073117;28;20040;-61
2022/12/11 11:00:25;;;;;;;50.08;21.33;;;2.50;99.90;;;;;;5060407;28;20048;-60
2022/12/11 11:02:53;;;;;;;47.38;20.42;;;2.60;99.90;;;;;;5043587;28;20044;-59
2022/12/11 11:05:33;;;;;;;48.35;19.20;;;2.60;99.90;;;;;;5060116;28;20407;-59
2022/12/11 11:08:21;;;;;;;51.05;19.48;;;2.60;99.90;;;;;;5048190;28;20045;-58
2022/12/11 11:10:57;;;;;;;53.05;20.13;;;2.70;99.90;;;;;;5044300;28;20539;-59
2022/12/11 11:13:31;;;;;;;48.72;20.48;;;2.70;99.90;;;;;;5045711;28;20041;-60
2022/12/11 11:16:05;;;;;;;50.20;21.08;;;2.70;99.90;;;;;;5061269;28;20496;-62
2022/12/11 11:18:34;;;;;;;62.72;25.42;;;2.70;99.90;;;;;;5044224;28;20048;-61
2022/12/11 11:21:02;;;;;;;57.85;22.95;;;2.70;99.90;;;;;;5046926;28;20056;-59
2022/12/11 11:23:30;;;;;;;44.20;18.67;;;2.70;99.90;;;;;;5053706;28;20059;-61
2022/12/11 11:26:01;;;;;;;42.75;16.95;;;2.80;99.90;;;;;;5044147;28;20044;-60
2022/12/11 11:28:35;;;;;;;43.10;17.42;;;2.80;99.90;;;;;;5046366;28;20634;-60
2022/12/11 11:31:10;;;;;;;43.38;17.17;;;2.80;99.90;;;;;;5037188;28;20041;-62
2022/12/11 11:33:56;;;;;;;37.92;15.90;;;2.80;99.90;;;;;;5058750;28;20056;-61
2022/12/11 11:36:27;;;;;;;40.58;16.50;;;2.80;99.90;;;;;;5048998;28;20044;-59
2022/12/11 11:39:10;;;;;;;39.42;15.57;;;2.80;99.90;;;;;;5056313;28;20036;-59
2022/12/11 11:41:50;;;;;;;39.88;15.93;;;2.70;99.90;;;;;;5057844;28;20048;-60
2022/12/11 11:44:33;;;;;;;34.40;15.30;;;2.80;99.90;;;;;;5054517;28;20489;-59
2022/12/11 11:47:22;;;;;;;38.40;16.10;;;2.80;99.90;;;;;;5045425;28;20091;-60
2022/12/11 11:50:28;;;;;;;34.88;14.77;;;2.70;99.90;;;;;;5058921;28;20040;-60
2022/12/11 11:53:12;;;;;;;37.45;15.77;;;2.80;99.90;;;;;;5054411;28;20512;-59
2022/12/11 11:55:54;;;;;;;32.58;15.60;;;2.80;99.90;;;;;;5047748;28;20045;-60
2022/12/11 11:58:27;;;;;;;30.83;14.27;;;2.80;99.90;;;;;;5056528;28;20045;-60
2022/12/11 12:00:55;;;;;;;29.00;13.35;;;2.90;99.90;;;;;;5063494;28;20041;-59
2022/12/11 12:03:24;;;;;;;32.92;14.80;;;2.90;99.90;;;;;;5058697;28;20045;-59
2022/12/11 12:06:03;;;;;;;28.27;12.47;;;3.00;99.90;;;;;;5061559;28;20033;-62
2022/12/11 12:08:40;;;;;;;24.60;10.82;;;3.00;99.90;;;;;;5060399;28;20048;-59
2022/12/11 12:11:22;;;;;;;27.00;12.13;;;3.00;99.90;;;;;;5049143;28;20155;-61
2022/12/11 12:14:20;;;;;;;31.52;13.48;;;3.00;99.90;;;;;;5062068;28;20048;-61
2022/12/11 12:17:18;;;;;;;28.00;11.65;;;2.90;99.90;;;;;;5046770;28;20045;-61
2022/12/11 12:19:58;;;;;;;25.35;12.43;;;3.00;99.90;;;;;;5048617;28;20400;-60
2022/12/11 12:22:32;;;;;;;;;;;3.00;99.90;;;;;;5062301;28;20048;-60
2022/12/11 12:25:20;;;;;;;22.75;11.15;;;3.00;99.90;;;;;;5053635;28;20395;-59
2022/12/11 12:27:59;;;;;;;25.15;11.25;;;3.00;99.90;;;;;;5059782;28;20055;-59
2022/12/11 12:30:36;;;;;;;21.73;10.60;;;3.00;99.90;;;;;;5057305;28;20063;-61
2022/12/11 12:33:04;;;;;;;20.42;10.95;;;3.00;99.90;;;;;;5057344;28;20040;-61
2022/12/11 12:36:17;;;;;;;17.42;9.85;;;3.00;99.90;;;;;;5066828;28;20045;-61
2022/12/11 12:39:01;;;;;;;21.67;10.27;;;3.00;99.90;;;;;;5009354;28;20049;-60
2022/12/11 12:41:32;;;;;;;22.33;10.93;;;3.00;99.90;;;;;;5062181;28;20052;-60
2022/12/11 12:44:08;;;;;;;22.60;10.60;;;3.00;99.90;;;;;;5064325;28;20043;-60
2022/12/11 12:46:39;;;;;;;22.33;10.98;;;3.00;99.90;;;;;;5059251;28;20045;-59
2022/12/11 12:49:16;;;;;;;19.23;9.25;;;3.00;99.90;;;;;;5055707;28;20044;-60
2022/12/11 12:51:45;;;;;;;20.13;11.10;;;3.00;99.90;;;;;;5051189;28;20547;-60
2022/12/11 12:54:16;;;;;;;19.38;10.65;;;3.00;99.90;;;;;;5059659;28;20041;-61
2022/12/11 12:56:45;;;;;;;20.58;9.38;;;3.00;99.90;;;;;;5051869;28;20056;-59
2022/12/11 12:59:22;;;;;;;21.10;10.15;;;3.00;99.90;;;;;;5054014;28;20045;-62
2022/12/11 13:01:57;;;;;;;22.88;11.00;;;3.10;99.90;;;;;;5049892;28;20523;-60
2022/12/11 13:04:35;;;;;;;21.23;9.98;;;3.20;99.90;;;;;;5052308;28;20308;-60
2022/12/11 13:07:29;;;;;;;19.70;9.18;;;3.60;99.90;;;;;;5035974;28;20037;-60
2022/12/11 13:10:05;;;;;;;23.27;10.65;;;3.80;99.90;;;;;;5053841;28;20401;-60
2022/12/11 13:12:44;;;;;;;22.48;10.27;;;3.90;99.90;;;;;;5058966;28;20044;-60
2022/12/11 13:15:33;;;;;;;23.73;11.10;;;4.00;99.90;;;;;;5053967;28;20052;-60
2022/12/11 13:18:03;;;;;;;20.30;10.15;;;3.90;99.90;;;;;;5064694;28;20127;-60